sensor_id;sensor_type;location;lat;lon;timestamp;P1;durP1;ratioP1;P2;durP2;ratioP2
6163;SDS011;3114;48.362;10.994;2023-05-23T00:01:46;9.20;;;6.13;;
6163;SDS011;3114;48.362;10.994;2023-05-23T00:04:13;11.07;;;6.70;;
6163;SDS011;3114;48.362;10.994;2023-05-23T00:06:42;9.63;;;6.70;;
6163;SDS011;3114;48.362;10.994;2023-05-23T00:09:11;8.40;;;6.53;;
6163;SDS011;3114;48.362;10.994;2023-05-23T00:11:39;9.73;;;6.40;;
6163;SDS011;3114;48.362;10.994;2023-05-23T00:14:09;10.65;;;6.88;;
6163;SDS011;3114;48.362;10.994;2023-05-23T00:16:38;9.07;;;7.05;;
6163;SDS011;3114;48.362;10.994;2023-05-23T00:19:06;9.00;;;7.13;;
6163;SDS011;3114;48.362;10.994;2023-05-23T00:21:34;9.05;;;6.35;;
6163;SDS011;3114;48.362;10.994;2023-05-23T00:24:01;9.65;;;7.07;;
6163;SDS011;3114;48.362;10.994;2023-05-23T00:26:28;9.55;;;7.35;;
6163;SDS011;3114;48.362;10.994;2023-05-23T00:28:56;10.93;;;6.97;;
6163;SDS011;3114;48.362;10.994;2023-05-23T00:31:23;7.95;;;7.10;;
6163;SDS011;3114;48.362;10.994;2023-05-23T00:33:51;13.18;;;7.40;;
6163;SDS011;3114;48.362;10.994;2023-05-23T00:36:18;8.10;;;7.05;;
6163;SDS011;3114;48.362;10.994;2023-05-23T00:38:46;9.20;;;6.90;;
6163;SDS011;3114;48.362;10.994;2023-05-23T00:41:13;8.48;;;7.10;;
6163;SDS011;3114;48.362;10.994;2023-05-23T00:43:40;8.48;;;6.85;;
6163;SDS011;3114;48.362;10.994;2023-05-23T00:46:07;11.65;;;7.70;;
6163;SDS011;3114;48.362;10.994;2023-05-23T00:48:35;8.35;;;7.43;;
6163;SDS011;3114;48.362;10.994;2023-05-23T00:51:04;12.48;;;7.68;;
6163;SDS011;3114;48.362;10.994;2023-05-23T00:53:31;11.18;;;8.13;;
6163;SDS011;3114;48.362;10.994;2023-05-23T00:56:00;13.57;;;7.72;;
6163;SDS011;3114;48.362;10.994;2023-05-23T00:58:28;11.82;;;7.70;;
6163;SDS011;3114;48.362;10.994;2023-05-23T01:00:56;8.43;;;7.53;;
6163;SDS011;3114;48.362;10.994;2023-05-23T01:03:23;9.85;;;7.65;;
6163;SDS011;3114;48.362;10.994;2023-05-23T01:05:52;11.50;;;8.20;;
6163;SDS011;3114;48.362;10.994;2023-05-23T01:08:21;9.95;;;7.32;;
6163;SDS011;3114;48.362;10.994;2023-05-23T01:10:48;11.70;;;8.10;;
6163;SDS011;3114;48.362;10.994;2023-05-23T01:13:20;8.73;;;7.70;;
6163;SDS011;3114;48.362;10.994;2023-05-23T01:15:54;10.10;;;7.78;;
6163;SDS011;3114;48.362;10.994;2023-05-23T01:18:27;8.85;;;7.82;;
6163;SDS011;3114;48.362;10.994;2023-05-23T01:20:59;9.05;;;7.90;;
6163;SDS011;3114;48.362;10.994;2023-05-23T01:23:49;12.15;;;8.00;;
6163;SDS011;3114;48.362;10.994;2023-05-23T01:26:40;11.00;;;8.10;;
6163;SDS011;3114;48.362;10.994;2023-05-23T01:29:20;11.18;;;8.30;;
6163;SDS011;3114;48.362;10.994;2023-05-23T01:31:51;11.40;;;7.75;;
6163;SDS011;3114;48.362;10.994;2023-05-23T01:34:20;12.18;;;9.18;;
6163;SDS011;3114;48.362;10.994;2023-05-23T01:36:48;12.55;;;8.70;;
6163;SDS011;3114;48.362;10.994;2023-05-23T01:39:19;10.90;;;8.35;;
6163;SDS011;3114;48.362;10.994;2023-05-23T01:41:46;11.25;;;8.88;;
6163;SDS011;3114;48.362;10.994;2023-05-23T01:44:13;10.63;;;8.98;;
6163;SDS011;3114;48.362;10.994;2023-05-23T01:46:42;12.02;;;8.73;;
6163;SDS011;3114;48.362;10.994;2023-05-23T01:49:10;14.43;;;9.23;;
6163;SDS011;3114;48.362;10.994;2023-05-23T01:51:39;12.57;;;9.65;;
6163;SDS011;3114;48.362;10.994;2023-05-23T01:54:06;11.90;;;9.27;;
6163;SDS011;3114;48.362;10.994;2023-05-23T01:56:33;12.80;;;9.07;;
6163;SDS011;3114;48.362;10.994;2023-05-23T01:59:00;11.73;;;9.65;;
6163;SDS011;3114;48.362;10.994;2023-05-23T02:01:28;12.38;;;9.00;;
6163;SDS011;3114;48.362;10.994;2023-05-23T02:03:56;12.80;;;9.48;;
6163;SDS011;3114;48.362;10.994;2023-05-23T02:06:23;14.07;;;9.35;;
6163;SDS011;3114;48.362;10.994;2023-05-23T02:08:50;10.80;;;9.02;;
6163;SDS011;3114;48.362;10.994;2023-05-23T02:11:17;11.32;;;9.25;;
6163;SDS011;3114;48.362;10.994;2023-05-23T02:13:43;12.23;;;9.05;;
6163;SDS011;3114;48.362;10.994;2023-05-23T02:16:10;13.85;;;8.95;;
6163;SDS011;3114;48.362;10.994;2023-05-23T02:18:37;14.20;;;9.10;;
6163;SDS011;3114;48.362;10.994;2023-05-23T02:21:06;11.98;;;9.15;;
6163;SDS011;3114;48.362;10.994;2023-05-23T02:23:32;11.32;;;9.23;;
6163;SDS011;3114;48.362;10.994;2023-05-23T02:25:59;10.60;;;8.90;;
6163;SDS011;3114;48.362;10.994;2023-05-23T02:28:27;10.77;;;9.45;;
6163;SDS011;3114;48.362;10.994;2023-05-23T02:30:54;12.13;;;9.45;;
6163;SDS011;3114;48.362;10.994;2023-05-23T02:33:21;12.07;;;10.18;;
6163;SDS011;3114;48.362;10.994;2023-05-23T02:35:48;10.85;;;8.93;;
6163;SDS011;3114;48.362;10.994;2023-05-23T02:38:16;14.60;;;10.80;;
6163;SDS011;3114;48.362;10.994;2023-05-23T02:40:44;14.50;;;9.98;;
6163;SDS011;3114;48.362;10.994;2023-05-23T02:43:11;12.07;;;9.80;;
6163;SDS011;3114;48.362;10.994;2023-05-23T02:45:38;17.95;;;9.55;;
6163;SDS011;3114;48.362;10.994;2023-05-23T02:48:05;14.75;;;9.95;;
6163;SDS011;3114;48.362;10.994;2023-05-23T02:50:32;13.85;;;10.18;;
6163;SDS011;3114;48.362;10.994;2023-05-23T02:52:58;13.68;;;10.70;;
6163;SDS011;3114;48.362;10.994;2023-05-23T02:55:27;13.65;;;10.70;;
6163;SDS011;3114;48.362;10.994;2023-05-23T02:57:55;15.25;;;11.05;;
6163;SDS011;3114;48.362;10.994;2023-05-23T03:00:22;12.25;;;10.05;;
6163;SDS011;3114;48.362;10.994;2023-05-23T03:02:49;13.13;;;10.15;;
6163;SDS011;3114;48.362;10.994;2023-05-23T03:05:16;14.32;;;10.57;;
6163;SDS011;3114;48.362;10.994;2023-05-23T03:07:43;13.63;;;9.77;;
6163;SDS011;3114;48.362;10.994;2023-05-23T03:10:10;11.57;;;10.35;;
6163;SDS011;3114;48.362;10.994;2023-05-23T03:12:38;12.95;;;10.05;;
6163;SDS011;3114;48.362;10.994;2023-05-23T03:15:06;11.27;;;9.43;;
6163;SDS011;3114;48.362;10.994;2023-05-23T03:17:34;14.20;;;9.77;;
6163;SDS011;3114;48.362;10.994;2023-05-23T03:20:01;13.20;;;10.18;;
6163;SDS011;3114;48.362;10.994;2023-05-23T03:22:29;13.73;;;10.57;;
6163;SDS011;3114;48.362;10.994;2023-05-23T03:24:55;16.20;;;10.98;;
6163;SDS011;3114;48.362;10.994;2023-05-23T03:27:22;13.50;;;10.95;;
6163;SDS011;3114;48.362;10.994;2023-05-23T03:29:50;13.25;;;10.82;;
6163;SDS011;3114;48.362;10.994;2023-05-23T03:32:17;15.02;;;11.23;;
6163;SDS011;3114;48.362;10.994;2023-05-23T03:34:44;15.95;;;10.77;;
6163;SDS011;3114;48.362;10.994;2023-05-23T03:37:11;12.73;;;10.45;;
6163;SDS011;3114;48.362;10.994;2023-05-23T03:39:38;15.75;;;11.18;;
6163;SDS011;3114;48.362;10.994;2023-05-23T03:42:05;15.13;;;10.90;;
6163;SDS011;3114;48.362;10.994;2023-05-23T03:44:32;14.68;;;10.52;;
6163;SDS011;3114;48.362;10.994;2023-05-23T03:47:00;12.77;;;10.52;;
6163;SDS011;3114;48.362;10.994;2023-05-23T03:49:27;15.10;;;11.15;;
6163;SDS011;3114;48.362;10.994;2023-05-23T03:51:54;15.95;;;11.63;;
6163;SDS011;3114;48.362;10.994;2023-05-23T03:54:21;14.68;;;11.23;;
6163;SDS011;3114;48.362;10.994;2023-05-23T03:56:48;14.10;;;11.20;;
6163;SDS011;3114;48.362;10.994;2023-05-23T03:59:14;15.77;;;11.38;;
6163;SDS011;3114;48.362;10.994;2023-05-23T04:01:42;14.13;;;11.20;;
6163;SDS011;3114;48.362;10.994;2023-05-23T04:04:10;13.45;;;10.98;;
6163;SDS011;3114;48.362;10.994;2023-05-23T04:06:37;14.75;;;11.93;;
6163;SDS011;3114;48.362;10.994;2023-05-23T04:09:04;13.93;;;11.68;;
6163;SDS011;3114;48.362;10.994;2023-05-23T04:11:31;17.17;;;11.55;;
6163;SDS011;3114;48.362;10.994;2023-05-23T04:13:58;16.33;;;12.60;;
6163;SDS011;3114;48.362;10.994;2023-05-23T04:16:26;16.48;;;12.40;;
6163;SDS011;3114;48.362;10.994;2023-05-23T04:18:57;16.55;;;11.63;;
6163;SDS011;3114;48.362;10.994;2023-05-23T04:21:25;15.32;;;12.35;;
6163;SDS011;3114;48.362;10.994;2023-05-23T04:23:52;15.38;;;12.68;;
6163;SDS011;3114;48.362;10.994;2023-05-23T04:26:19;15.85;;;11.90;;
6163;SDS011;3114;48.362;10.994;2023-05-23T04:28:45;16.42;;;11.93;;
6163;SDS011;3114;48.362;10.994;2023-05-23T04:31:12;17.25;;;12.70;;
6163;SDS011;3114;48.362;10.994;2023-05-23T04:33:40;16.30;;;12.05;;
6163;SDS011;3114;48.362;10.994;2023-05-23T04:36:07;18.58;;;12.43;;
6163;SDS011;3114;48.362;10.994;2023-05-23T04:38:38;16.17;;;12.98;;
6163;SDS011;3114;48.362;10.994;2023-05-23T04:41:05;17.75;;;13.27;;
6163;SDS011;3114;48.362;10.994;2023-05-23T04:43:34;16.08;;;12.52;;
6163;SDS011;3114;48.362;10.994;2023-05-23T04:46:01;16.48;;;12.65;;
6163;SDS011;3114;48.362;10.994;2023-05-23T04:48:28;19.35;;;13.73;;
6163;SDS011;3114;48.362;10.994;2023-05-23T04:50:55;19.08;;;13.70;;
6163;SDS011;3114;48.362;10.994;2023-05-23T04:53:27;16.73;;;13.52;;
6163;SDS011;3114;48.362;10.994;2023-05-23T04:55:55;16.80;;;12.23;;
6163;SDS011;3114;48.362;10.994;2023-05-23T04:58:22;16.83;;;13.45;;
6163;SDS011;3114;48.362;10.994;2023-05-23T05:00:49;22.17;;;14.32;;
6163;SDS011;3114;48.362;10.994;2023-05-23T05:03:16;20.50;;;14.30;;
6163;SDS011;3114;48.362;10.994;2023-05-23T05:05:43;19.75;;;14.82;;
6163;SDS011;3114;48.362;10.994;2023-05-23T05:08:09;18.42;;;14.30;;
6163;SDS011;3114;48.362;10.994;2023-05-23T05:10:38;21.52;;;13.27;;
6163;SDS011;3114;48.362;10.994;2023-05-23T05:13:07;22.77;;;15.15;;
6163;SDS011;3114;48.362;10.994;2023-05-23T05:15:34;21.23;;;13.85;;
6163;SDS011;3114;48.362;10.994;2023-05-23T05:18:01;24.33;;;16.00;;
6163;SDS011;3114;48.362;10.994;2023-05-23T05:20:28;23.83;;;15.75;;
6163;SDS011;3114;48.362;10.994;2023-05-23T05:22:55;24.25;;;15.35;;
6163;SDS011;3114;48.362;10.994;2023-05-23T05:25:22;20.38;;;15.15;;
6163;SDS011;3114;48.362;10.994;2023-05-23T05:27:51;18.55;;;14.55;;
6163;SDS011;3114;48.362;10.994;2023-05-23T05:30:19;25.45;;;16.00;;
6163;SDS011;3114;48.362;10.994;2023-05-23T05:32:46;20.88;;;15.73;;
6163;SDS011;3114;48.362;10.994;2023-05-23T05:35:13;24.02;;;15.82;;
6163;SDS011;3114;48.362;10.994;2023-05-23T05:37:40;25.25;;;17.13;;
6163;SDS011;3114;48.362;10.994;2023-05-23T05:40:07;22.73;;;16.55;;
6163;SDS011;3114;48.362;10.994;2023-05-23T05:42:34;24.45;;;18.10;;
6163;SDS011;3114;48.362;10.994;2023-05-23T05:45:01;25.10;;;16.88;;
6163;SDS011;3114;48.362;10.994;2023-05-23T05:47:30;26.83;;;17.92;;
6163;SDS011;3114;48.362;10.994;2023-05-23T05:49:57;24.38;;;17.27;;
6163;SDS011;3114;48.362;10.994;2023-05-23T05:52:23;26.40;;;18.35;;
6163;SDS011;3114;48.362;10.994;2023-05-23T05:54:50;26.75;;;18.50;;
6163;SDS011;3114;48.362;10.994;2023-05-23T05:57:17;23.08;;;18.38;;
6163;SDS011;3114;48.362;10.994;2023-05-23T05:59:44;27.88;;;17.77;;
6163;SDS011;3114;48.362;10.994;2023-05-23T06:02:11;27.05;;;19.02;;
6163;SDS011;3114;48.362;10.994;2023-05-23T06:04:39;28.83;;;18.42;;
6163;SDS011;3114;48.362;10.994;2023-05-23T06:07:06;25.60;;;17.60;;
6163;SDS011;3114;48.362;10.994;2023-05-23T06:09:33;28.63;;;19.02;;
6163;SDS011;3114;48.362;10.994;2023-05-23T06:12:00;30.20;;;19.00;;
6163;SDS011;3114;48.362;10.994;2023-05-23T06:14:27;28.17;;;18.35;;
6163;SDS011;3114;48.362;10.994;2023-05-23T06:16:54;26.05;;;18.52;;
6163;SDS011;3114;48.362;10.994;2023-05-23T06:19:21;26.15;;;18.08;;
6163;SDS011;3114;48.362;10.994;2023-05-23T06:21:49;24.65;;;17.17;;
6163;SDS011;3114;48.362;10.994;2023-05-23T06:24:16;27.55;;;17.33;;
6163;SDS011;3114;48.362;10.994;2023-05-23T06:26:42;26.70;;;17.27;;
6163;SDS011;3114;48.362;10.994;2023-05-23T06:29:09;24.90;;;19.05;;
6163;SDS011;3114;48.362;10.994;2023-05-23T06:31:36;24.13;;;17.42;;
6163;SDS011;3114;48.362;10.994;2023-05-23T06:34:03;25.95;;;18.08;;
6163;SDS011;3114;48.362;10.994;2023-05-23T06:36:30;27.65;;;18.23;;
6163;SDS011;3114;48.362;10.994;2023-05-23T06:38:58;27.63;;;17.77;;
6163;SDS011;3114;48.362;10.994;2023-05-23T06:41:25;22.45;;;17.10;;
6163;SDS011;3114;48.362;10.994;2023-05-23T06:43:52;24.13;;;16.58;;
6163;SDS011;3114;48.362;10.994;2023-05-23T06:46:19;27.42;;;18.23;;
6163;SDS011;3114;48.362;10.994;2023-05-23T06:48:45;24.25;;;18.17;;
6163;SDS011;3114;48.362;10.994;2023-05-23T06:51:12;25.92;;;17.58;;
6163;SDS011;3114;48.362;10.994;2023-05-23T06:53:39;28.77;;;19.50;;
6163;SDS011;3114;48.362;10.994;2023-05-23T06:56:07;24.95;;;18.17;;
6163;SDS011;3114;48.362;10.994;2023-05-23T06:58:34;27.20;;;18.13;;
6163;SDS011;3114;48.362;10.994;2023-05-23T07:01:01;26.33;;;18.02;;
6163;SDS011;3114;48.362;10.994;2023-05-23T07:03:28;24.83;;;18.17;;
6163;SDS011;3114;48.362;10.994;2023-05-23T07:05:55;23.58;;;17.10;;
6163;SDS011;3114;48.362;10.994;2023-05-23T07:08:22;22.50;;;16.58;;
6163;SDS011;3114;48.362;10.994;2023-05-23T07:10:49;28.33;;;16.92;;
6163;SDS011;3114;48.362;10.994;2023-05-23T07:13:17;25.05;;;17.05;;
6163;SDS011;3114;48.362;10.994;2023-05-23T07:15:44;25.20;;;17.50;;
6163;SDS011;3114;48.362;10.994;2023-05-23T07:18:10;26.83;;;17.48;;
6163;SDS011;3114;48.362;10.994;2023-05-23T07:20:37;22.58;;;15.93;;
6163;SDS011;3114;48.362;10.994;2023-05-23T07:23:04;24.63;;;17.00;;
6163;SDS011;3114;48.362;10.994;2023-05-23T07:25:31;27.75;;;16.80;;
6163;SDS011;3114;48.362;10.994;2023-05-23T07:27:58;20.63;;;15.70;;
6163;SDS011;3114;48.362;10.994;2023-05-23T07:30:26;25.73;;;15.93;;
6163;SDS011;3114;48.362;10.994;2023-05-23T07:32:53;22.73;;;16.63;;
6163;SDS011;3114;48.362;10.994;2023-05-23T07:35:19;22.38;;;16.20;;
6163;SDS011;3114;48.362;10.994;2023-05-23T07:37:50;20.90;;;15.35;;
6163;SDS011;3114;48.362;10.994;2023-05-23T07:40:17;20.00;;;14.80;;
6163;SDS011;3114;48.362;10.994;2023-05-23T07:42:44;22.63;;;14.45;;
6163;SDS011;3114;48.362;10.994;2023-05-23T07:45:11;22.67;;;14.95;;
6163;SDS011;3114;48.362;10.994;2023-05-23T07:47:39;20.30;;;14.57;;
6163;SDS011;3114;48.362;10.994;2023-05-23T07:50:07;22.45;;;15.43;;
6163;SDS011;3114;48.362;10.994;2023-05-23T07:52:34;20.38;;;13.88;;
6163;SDS011;3114;48.362;10.994;2023-05-23T07:55:05;20.15;;;14.95;;
6163;SDS011;3114;48.362;10.994;2023-05-23T07:57:32;21.30;;;14.57;;
6163;SDS011;3114;48.362;10.994;2023-05-23T07:59:59;26.00;;;15.40;;
6163;SDS011;3114;48.362;10.994;2023-05-23T08:02:26;26.02;;;14.77;;
6163;SDS011;3114;48.362;10.994;2023-05-23T08:04:54;22.90;;;15.77;;
6163;SDS011;3114;48.362;10.994;2023-05-23T08:07:21;25.75;;;17.50;;
6163;SDS011;3114;48.362;10.994;2023-05-23T08:09:48;24.30;;;16.85;;
6163;SDS011;3114;48.362;10.994;2023-05-23T08:12:14;19.20;;;13.43;;
6163;SDS011;3114;48.362;10.994;2023-05-23T08:14:41;21.63;;;15.73;;
6163;SDS011;3114;48.362;10.994;2023-05-23T08:17:09;20.75;;;15.82;;
6163;SDS011;3114;48.362;10.994;2023-05-23T08:19:37;21.92;;;15.90;;
6163;SDS011;3114;48.362;10.994;2023-05-23T08:22:05;29.48;;;15.68;;
6163;SDS011;3114;48.362;10.994;2023-05-23T08:24:32;23.13;;;16.27;;
6163;SDS011;3114;48.362;10.994;2023-05-23T08:26:59;23.67;;;17.08;;
6163;SDS011;3114;48.362;10.994;2023-05-23T08:29:26;21.50;;;15.10;;
6163;SDS011;3114;48.362;10.994;2023-05-23T08:31:53;22.58;;;15.75;;
6163;SDS011;3114;48.362;10.994;2023-05-23T08:34:20;24.20;;;15.52;;
6163;SDS011;3114;48.362;10.994;2023-05-23T08:36:46;21.30;;;15.70;;
6163;SDS011;3114;48.362;10.994;2023-05-23T08:39:15;22.60;;;16.88;;
6163;SDS011;3114;48.362;10.994;2023-05-23T08:41:41;20.15;;;15.35;;
6163;SDS011;3114;48.362;10.994;2023-05-23T08:44:08;18.63;;;14.57;;
6163;SDS011;3114;48.362;10.994;2023-05-23T08:46:37;20.38;;;14.68;;
6163;SDS011;3114;48.362;10.994;2023-05-23T08:49:09;19.50;;;14.48;;
6163;SDS011;3114;48.362;10.994;2023-05-23T08:51:38;18.85;;;13.85;;
6163;SDS011;3114;48.362;10.994;2023-05-23T08:54:09;18.67;;;13.48;;
6163;SDS011;3114;48.362;10.994;2023-05-23T08:56:39;17.98;;;13.85;;
6163;SDS011;3114;48.362;10.994;2023-05-23T08:59:08;19.20;;;14.70;;
6163;SDS011;3114;48.362;10.994;2023-05-23T09:01:35;20.50;;;15.45;;
6163;SDS011;3114;48.362;10.994;2023-05-23T09:04:05;20.63;;;14.27;;
6163;SDS011;3114;48.362;10.994;2023-05-23T09:06:32;19.35;;;14.52;;
6163;SDS011;3114;48.362;10.994;2023-05-23T09:09:00;20.50;;;14.55;;
6163;SDS011;3114;48.362;10.994;2023-05-23T09:11:28;20.45;;;15.30;;
6163;SDS011;3114;48.362;10.994;2023-05-23T09:13:59;20.35;;;15.57;;
6163;SDS011;3114;48.362;10.994;2023-05-23T09:16:30;19.02;;;15.07;;
6163;SDS011;3114;48.362;10.994;2023-05-23T09:18:58;21.88;;;16.42;;
6163;SDS011;3114;48.362;10.994;2023-05-23T09:21:35;22.10;;;16.10;;
6163;SDS011;3114;48.362;10.994;2023-05-23T09:24:02;22.40;;;15.93;;
6163;SDS011;3114;48.362;10.994;2023-05-23T09:26:31;20.70;;;15.68;;
6163;SDS011;3114;48.362;10.994;2023-05-23T09:28:59;19.77;;;14.43;;
6163;SDS011;3114;48.362;10.994;2023-05-23T09:31:26;22.85;;;14.40;;
6163;SDS011;3114;48.362;10.994;2023-05-23T09:33:53;21.52;;;14.77;;
6163;SDS011;3114;48.362;10.994;2023-05-23T09:36:20;17.65;;;12.85;;
6163;SDS011;3114;48.362;10.994;2023-05-23T09:38:47;18.85;;;13.82;;
6163;SDS011;3114;48.362;10.994;2023-05-23T09:41:18;18.20;;;14.07;;
6163;SDS011;3114;48.362;10.994;2023-05-23T09:43:48;16.92;;;13.98;;
6163;SDS011;3114;48.362;10.994;2023-05-23T09:46:17;21.08;;;12.93;;
6163;SDS011;3114;48.362;10.994;2023-05-23T09:48:45;19.48;;;13.73;;
6163;SDS011;3114;48.362;10.994;2023-05-23T09:51:12;17.42;;;12.40;;
6163;SDS011;3114;48.362;10.994;2023-05-23T09:53:39;16.02;;;12.85;;
6163;SDS011;3114;48.362;10.994;2023-05-23T09:56:06;16.42;;;12.40;;
6163;SDS011;3114;48.362;10.994;2023-05-23T09:58:36;16.85;;;13.07;;
6163;SDS011;3114;48.362;10.994;2023-05-23T10:01:04;15.93;;;13.18;;
6163;SDS011;3114;48.362;10.994;2023-05-23T10:03:38;15.88;;;12.45;;
6163;SDS011;3114;48.362;10.994;2023-05-23T10:06:12;16.35;;;12.27;;
6163;SDS011;3114;48.362;10.994;2023-05-23T10:08:44;16.67;;;12.57;;
6163;SDS011;3114;48.362;10.994;2023-05-23T10:14:15;17.38;;;12.95;;
6163;SDS011;3114;48.362;10.994;2023-05-23T10:16:47;15.00;;;12.38;;
6163;SDS011;3114;48.362;10.994;2023-05-23T10:19:24;16.85;;;11.75;;
6163;SDS011;3114;48.362;10.994;2023-05-23T10:22:05;16.25;;;12.57;;
6163;SDS011;3114;48.362;10.994;2023-05-23T10:24:35;14.85;;;12.15;;
6163;SDS011;3114;48.362;10.994;2023-05-23T10:27:02;16.73;;;12.43;;
6163;SDS011;3114;48.362;10.994;2023-05-23T10:29:30;16.33;;;11.60;;
6163;SDS011;3114;48.362;10.994;2023-05-23T10:31:59;16.65;;;12.35;;
6163;SDS011;3114;48.362;10.994;2023-05-23T10:34:31;16.50;;;12.57;;
6163;SDS011;3114;48.362;10.994;2023-05-23T10:37:04;14.00;;;11.23;;
6163;SDS011;3114;48.362;10.994;2023-05-23T10:39:39;20.48;;;12.18;;
6163;SDS011;3114;48.362;10.994;2023-05-23T10:42:16;16.92;;;12.60;;
6163;SDS011;3114;48.362;10.994;2023-05-23T10:44:49;16.67;;;11.40;;
6163;SDS011;3114;48.362;10.994;2023-05-23T10:47:24;16.40;;;12.05;;
6163;SDS011;3114;48.362;10.994;2023-05-23T10:49:54;17.73;;;12.35;;
6163;SDS011;3114;48.362;10.994;2023-05-23T10:52:22;14.35;;;12.02;;
6163;SDS011;3114;48.362;10.994;2023-05-23T10:54:53;15.70;;;12.52;;
6163;SDS011;3114;48.362;10.994;2023-05-23T10:57:21;14.05;;;12.10;;
6163;SDS011;3114;48.362;10.994;2023-05-23T10:59:52;18.20;;;12.50;;
6163;SDS011;3114;48.362;10.994;2023-05-23T11:02:24;17.02;;;11.80;;
6163;SDS011;3114;48.362;10.994;2023-05-23T11:07:45;15.95;;;11.80;;
6163;SDS011;3114;48.362;10.994;2023-05-23T11:10:12;15.45;;;11.55;;
6163;SDS011;3114;48.362;10.994;2023-05-23T11:12:39;16.88;;;13.80;;
6163;SDS011;3114;48.362;10.994;2023-05-23T11:15:20;16.23;;;12.32;;
6163;SDS011;3114;48.362;10.994;2023-05-23T11:17:49;15.98;;;11.38;;
6163;SDS011;3114;48.362;10.994;2023-05-23T11:20:19;15.45;;;12.13;;
6163;SDS011;3114;48.362;10.994;2023-05-23T11:22:58;18.95;;;12.35;;
6163;SDS011;3114;48.362;10.994;2023-05-23T11:25:39;15.60;;;11.38;;
6163;SDS011;3114;48.362;10.994;2023-05-23T11:28:08;17.95;;;13.48;;
6163;SDS011;3114;48.362;10.994;2023-05-23T11:30:35;14.35;;;11.85;;
6163;SDS011;3114;48.362;10.994;2023-05-23T11:33:06;16.20;;;12.10;;
6163;SDS011;3114;48.362;10.994;2023-05-23T11:35:37;13.63;;;12.07;;
6163;SDS011;3114;48.362;10.994;2023-05-23T11:38:05;15.15;;;11.40;;
6163;SDS011;3114;48.362;10.994;2023-05-23T11:40:32;13.35;;;10.95;;
6163;SDS011;3114;48.362;10.994;2023-05-23T11:43:01;15.73;;;11.57;;
6163;SDS011;3114;48.362;10.994;2023-05-23T11:45:30;13.57;;;12.02;;
6163;SDS011;3114;48.362;10.994;2023-05-23T11:47:57;12.38;;;10.90;;
6163;SDS011;3114;48.362;10.994;2023-05-23T11:50:29;15.80;;;12.52;;
6163;SDS011;3114;48.362;10.994;2023-05-23T11:52:58;16.15;;;11.80;;
6163;SDS011;3114;48.362;10.994;2023-05-23T11:55:25;17.45;;;11.43;;
6163;SDS011;3114;48.362;10.994;2023-05-23T11:57:54;16.70;;;11.15;;
6163;SDS011;3114;48.362;10.994;2023-05-23T12:00:21;13.60;;;11.13;;
6163;SDS011;3114;48.362;10.994;2023-05-23T12:02:48;12.77;;;10.57;;
6163;SDS011;3114;48.362;10.994;2023-05-23T12:05:15;15.05;;;10.00;;
6163;SDS011;3114;48.362;10.994;2023-05-23T12:07:42;15.88;;;10.77;;
6163;SDS011;3114;48.362;10.994;2023-05-23T12:10:12;16.88;;;11.48;;
6163;SDS011;3114;48.362;10.994;2023-05-23T12:12:40;13.60;;;10.85;;
6163;SDS011;3114;48.362;10.994;2023-05-23T12:15:07;15.10;;;11.95;;
6163;SDS011;3114;48.362;10.994;2023-05-23T12:17:35;18.95;;;12.68;;
6163;SDS011;3114;48.362;10.994;2023-05-23T12:20:03;14.23;;;12.25;;
6163;SDS011;3114;48.362;10.994;2023-05-23T12:22:31;15.32;;;11.18;;
6163;SDS011;3114;48.362;10.994;2023-05-23T12:24:58;13.52;;;11.05;;
6163;SDS011;3114;48.362;10.994;2023-05-23T12:27:27;18.33;;;11.52;;
6163;SDS011;3114;48.362;10.994;2023-05-23T12:30:05;14.50;;;11.10;;
6163;SDS011;3114;48.362;10.994;2023-05-23T12:32:33;16.65;;;11.38;;
6163;SDS011;3114;48.362;10.994;2023-05-23T12:35:00;14.65;;;10.73;;
6163;SDS011;3114;48.362;10.994;2023-05-23T12:37:29;12.63;;;10.57;;
6163;SDS011;3114;48.362;10.994;2023-05-23T12:39:56;12.93;;;9.75;;
6163;SDS011;3114;48.362;10.994;2023-05-23T12:42:23;16.30;;;11.35;;
6163;SDS011;3114;48.362;10.994;2023-05-23T12:44:52;15.45;;;12.02;;
6163;SDS011;3114;48.362;10.994;2023-05-23T12:47:19;15.73;;;9.90;;
6163;SDS011;3114;48.362;10.994;2023-05-23T12:49:46;11.57;;;9.52;;
6163;SDS011;3114;48.362;10.994;2023-05-23T12:52:13;12.68;;;8.43;;
6163;SDS011;3114;48.362;10.994;2023-05-23T12:54:39;11.85;;;9.82;;
6163;SDS011;3114;48.362;10.994;2023-05-23T12:57:06;14.80;;;11.27;;
6163;SDS011;3114;48.362;10.994;2023-05-23T12:59:33;13.43;;;11.10;;
6163;SDS011;3114;48.362;10.994;2023-05-23T13:02:01;13.13;;;11.25;;
6163;SDS011;3114;48.362;10.994;2023-05-23T13:04:29;11.93;;;10.70;;
6163;SDS011;3114;48.362;10.994;2023-05-23T13:06:55;12.25;;;10.05;;
6163;SDS011;3114;48.362;10.994;2023-05-23T13:09:22;11.13;;;9.30;;
6163;SDS011;3114;48.362;10.994;2023-05-23T13:11:49;11.38;;;9.32;;
6163;SDS011;3114;48.362;10.994;2023-05-23T13:14:16;13.23;;;8.60;;
6163;SDS011;3114;48.362;10.994;2023-05-23T13:16:43;11.43;;;8.45;;
6163;SDS011;3114;48.362;10.994;2023-05-23T13:19:11;11.57;;;8.85;;
6163;SDS011;3114;48.362;10.994;2023-05-23T13:21:38;13.40;;;8.73;;
6163;SDS011;3114;48.362;10.994;2023-05-23T13:24:05;10.18;;;8.23;;
6163;SDS011;3114;48.362;10.994;2023-05-23T13:26:33;11.05;;;8.52;;
6163;SDS011;3114;48.362;10.994;2023-05-23T13:29:00;11.15;;;8.85;;
6163;SDS011;3114;48.362;10.994;2023-05-23T13:31:27;14.98;;;9.65;;
6163;SDS011;3114;48.362;10.994;2023-05-23T13:33:54;12.73;;;9.13;;
6163;SDS011;3114;48.362;10.994;2023-05-23T13:36:22;11.35;;;7.50;;
6163;SDS011;3114;48.362;10.994;2023-05-23T13:38:49;9.52;;;8.18;;
6163;SDS011;3114;48.362;10.994;2023-05-23T13:41:16;12.88;;;8.38;;
6163;SDS011;3114;48.362;10.994;2023-05-23T13:43:43;14.57;;;7.60;;
6163;SDS011;3114;48.362;10.994;2023-05-23T13:46:10;11.18;;;7.90;;
6163;SDS011;3114;48.362;10.994;2023-05-23T13:48:37;9.80;;;7.78;;
6163;SDS011;3114;48.362;10.994;2023-05-23T13:51:04;10.57;;;7.60;;
6163;SDS011;3114;48.362;10.994;2023-05-23T13:53:32;10.52;;;7.90;;
6163;SDS011;3114;48.362;10.994;2023-05-23T13:55:59;9.85;;;6.97;;
6163;SDS011;3114;48.362;10.994;2023-05-23T13:58:27;9.15;;;7.50;;
6163;SDS011;3114;48.362;10.994;2023-05-23T14:00:54;9.27;;;7.75;;
6163;SDS011;3114;48.362;10.994;2023-05-23T14:03:21;9.48;;;7.53;;
6163;SDS011;3114;48.362;10.994;2023-05-23T14:05:48;8.85;;;7.32;;
6163;SDS011;3114;48.362;10.994;2023-05-23T14:08:15;7.30;;;6.60;;
6163;SDS011;3114;48.362;10.994;2023-05-23T14:10:43;11.43;;;7.40;;
6163;SDS011;3114;48.362;10.994;2023-05-23T14:13:10;8.45;;;7.43;;
6163;SDS011;3114;48.362;10.994;2023-05-23T14:15:37;9.30;;;7.90;;
6163;SDS011;3114;48.362;10.994;2023-05-23T14:18:05;9.15;;;7.65;;
6163;SDS011;3114;48.362;10.994;2023-05-23T14:20:32;8.00;;;7.03;;
6163;SDS011;3114;48.362;10.994;2023-05-23T14:23:00;9.32;;;7.10;;
6163;SDS011;3114;48.362;10.994;2023-05-23T14:25:26;7.25;;;6.63;;
6163;SDS011;3114;48.362;10.994;2023-05-23T14:27:55;10.57;;;7.45;;
6163;SDS011;3114;48.362;10.994;2023-05-23T14:30:22;8.88;;;6.50;;
6163;SDS011;3114;48.362;10.994;2023-05-23T14:32:49;9.52;;;7.20;;
6163;SDS011;3114;48.362;10.994;2023-05-23T14:35:16;9.45;;;7.57;;
6163;SDS011;3114;48.362;10.994;2023-05-23T14:37:43;8.27;;;6.65;;
6163;SDS011;3114;48.362;10.994;2023-05-23T14:40:10;9.40;;;7.00;;
6163;SDS011;3114;48.362;10.994;2023-05-23T14:42:38;9.27;;;6.22;;
6163;SDS011;3114;48.362;10.994;2023-05-23T14:45:06;9.52;;;7.25;;
6163;SDS011;3114;48.362;10.994;2023-05-23T14:47:34;10.20;;;7.43;;
6163;SDS011;3114;48.362;10.994;2023-05-23T14:50:01;8.48;;;6.22;;
6163;SDS011;3114;48.362;10.994;2023-05-23T14:52:28;8.25;;;6.47;;